createdAt,value
2023-03-15T00:02:52.054Z,9.70
2023-03-15T00:07:54.696Z,9.40
2023-03-15T00:12:57.433Z,9.20
2023-03-15T00:18:00.088Z,8.90
2023-03-15T00:23:02.767Z,8.20
2023-03-15T00:28:05.931Z,7.70
2023-03-15T00:33:09.494Z,7.30
2023-03-15T00:38:13.846Z,7.10
2023-03-15T00:43:18.238Z,6.80
2023-03-15T00:48:20.801Z,6.70
2023-03-15T00:53:23.571Z,6.50
2023-03-15T00:58:27.558Z,5.90
2023-03-15T01:03:30.483Z,5.70
2023-03-15T01:08:33.367Z,5.50
2023-03-15T01:13:37.109Z,5.30
2023-03-15T01:18:40.024Z,5.00
2023-03-15T01:23:43.060Z,4.90
2023-03-15T01:28:46.045Z,4.80
2023-03-15T01:33:48.865Z,4.80
2023-03-15T01:38:51.912Z,4.70
2023-03-15T01:43:59.839Z,4.60
2023-03-15T01:49:20.311Z,4.50
2023-03-15T01:54:31.201Z,4.40
2023-03-15T01:59:46.141Z,4.50
2023-03-15T02:05:05.023Z,4.40
2023-03-15T02:10:11.574Z,4.40
2023-03-15T02:15:16.324Z,4.20
2023-03-15T02:20:48.559Z,4.10
2023-03-15T02:26:21.990Z,4.00
2023-03-15T02:31:25.258Z,4.10
2023-03-15T02:36:30.264Z,4.00
2023-03-15T02:41:37.642Z,4.00
2023-03-15T02:46:41.785Z,3.90
2023-03-15T02:51:44.649Z,3.80
2023-03-15T02:56:47.364Z,3.70
2023-03-15T03:01:50.182Z,3.80
2023-03-15T03:06:53.825Z,3.70
2023-03-15T03:12:00.047Z,3.70
2023-03-15T03:17:03.542Z,3.70
2023-03-15T03:22:07.167Z,3.60
2023-03-15T03:27:09.992Z,3.60
2023-03-15T03:32:14.289Z,3.60
2023-03-15T03:37:21.288Z,3.60
2023-03-15T03:42:32.752Z,3.60
2023-03-15T03:47:35.395Z,3.60
2023-03-15T03:52:38.134Z,3.60
2023-03-15T03:57:48.010Z,3.60
2023-03-15T04:02:59.862Z,3.60
2023-03-15T04:08:03.290Z,3.70
2023-03-15T04:13:11.949Z,3.60
2023-03-15T04:18:15.913Z,3.60
2023-03-15T04:23:24.403Z,3.50
2023-03-15T04:28:34.955Z,3.40
2023-03-15T04:33:56.915Z,3.40
2023-03-15T04:39:32.086Z,3.40
2023-03-15T04:44:54.317Z,3.30
2023-03-15T04:50:17.620Z,3.30
2023-03-15T04:55:40.848Z,3.30
2023-03-15T05:00:54.454Z,3.30
2023-03-15T05:06:26.556Z,3.30
2023-03-15T05:11:49.677Z,3.30
2023-03-15T05:17:16.109Z,3.30
2023-03-15T05:22:30.405Z,3.40
2023-03-15T05:27:53.189Z,3.40
2023-03-15T05:33:05.994Z,3.40
2023-03-15T05:38:21.241Z,3.40
2023-03-15T05:43:42.485Z,3.50
2023-03-15T05:48:57.690Z,3.40
2023-03-15T05:54:13.126Z,3.50
2023-03-15T05:59:41.955Z,3.40
2023-03-15T06:05:07.701Z,3.60
2023-03-15T06:10:11.913Z,3.60
2023-03-15T06:15:14.919Z,3.70
2023-03-15T06:20:18.025Z,3.60
2023-03-15T06:25:21.273Z,3.60
2023-03-15T06:30:24.270Z,3.70
2023-03-15T06:35:31.964Z,3.60
2023-03-15T06:40:35.203Z,3.70
2023-03-15T06:45:37.999Z,3.60
2023-03-15T06:50:47.211Z,3.70
2023-03-15T06:55:52.613Z,3.70
2023-03-15T07:00:55.401Z,3.70
2023-03-15T07:05:58.322Z,3.80
2023-03-15T07:11:02.569Z,4.00
2023-03-15T07:16:05.685Z,4.00
2023-03-15T07:21:08.588Z,4.10
2023-03-15T07:26:11.829Z,4.00
2023-03-15T07:31:15.431Z,4.10
2023-03-15T07:36:18.238Z,4.50
2023-03-15T07:41:21.137Z,4.70
2023-03-15T07:46:34.198Z,4.90
2023-03-15T07:51:37.079Z,4.80
2023-03-15T07:56:40.014Z,4.90
2023-03-15T08:01:42.848Z,5.00
2023-03-15T08:06:45.724Z,4.90
2023-03-15T08:11:48.714Z,4.80
2023-03-15T08:17:47.644Z,4.70
2023-03-15T08:23:02.403Z,4.80
2023-03-15T08:28:05.634Z,5.00
2023-03-15T08:33:09.354Z,5.50
2023-03-15T08:38:13.021Z,4.90
2023-03-15T08:43:16.008Z,4.70
2023-03-15T08:48:18.745Z,5.10
2023-03-15T08:53:22.036Z,5.40
2023-03-15T08:58:25.266Z,5.40
2023-03-15T09:03:28.385Z,5.50
2023-03-15T09:08:33.695Z,5.80
2023-03-15T09:13:36.806Z,5.70
2023-03-15T09:18:41.293Z,5.60
2023-03-15T09:23:44.205Z,5.40
2023-03-15T09:28:47.324Z,5.50
2023-03-15T09:33:50.178Z,5.30
2023-03-15T09:38:52.898Z,5.40
2023-03-15T09:44:17.299Z,5.70
2023-03-15T09:49:52.462Z,5.30
2023-03-15T09:55:23.825Z,5.50
2023-03-15T10:00:45.875Z,5.60
2023-03-15T10:05:54.797Z,5.40
2023-03-15T10:11:20.672Z,5.50
2023-03-15T10:16:23.321Z,5.50
2023-03-15T10:21:50.585Z,5.90
2023-03-15T10:26:54.425Z,5.90
2023-03-15T10:31:57.564Z,6.00
2023-03-15T10:37:00.316Z,6.00
2023-03-15T10:42:04.138Z,6.10
2023-03-15T10:47:23.685Z,6.00
2023-03-15T10:52:40.166Z,6.10
2023-03-15T10:57:57.076Z,6.10
2023-03-15T11:03:20.652Z,5.90
2023-03-15T11:08:45.486Z,6.10
2023-03-15T11:14:01.408Z,6.30
2023-03-15T11:19:12.281Z,6.50
2023-03-15T11:24:30.094Z,6.40
2023-03-15T11:29:38.450Z,6.40
2023-03-15T11:34:56.545Z,6.60
2023-03-15T11:40:12.145Z,6.50
2023-03-15T11:45:53.953Z,6.70
2023-03-15T11:51:20.158Z,6.90
2023-03-15T11:56:29.428Z,7.00
2023-03-15T12:01:35.165Z,6.90
2023-03-15T12:06:39.136Z,7.50
2023-03-15T12:11:43.360Z,7.90
2023-03-15T12:16:47.358Z,7.90
2023-03-15T12:21:57.679Z,8.10
2023-03-15T12:27:06.947Z,7.70
2023-03-15T12:32:15.293Z,7.60
2023-03-15T12:37:18.467Z,7.50
2023-03-15T12:42:31.583Z,7.90
2023-03-15T12:47:51.101Z,7.80
2023-03-15T12:53:01.332Z,7.70
2023-03-15T12:58:05.222Z,7.80
2023-03-15T13:03:16.958Z,7.50
2023-03-15T13:08:26.434Z,6.90
2023-03-15T13:14:14.314Z,7.10
2023-03-15T13:19:19.513Z,7.00
2023-03-15T13:24:33.748Z,7.00
2023-03-15T13:29:37.227Z,7.20
2023-03-15T13:34:41.309Z,7.40
2023-03-15T13:40:01.597Z,7.60
2023-03-15T13:45:12.099Z,7.60
2023-03-15T13:50:21.865Z,7.70
2023-03-15T13:55:28.886Z,7.10
2023-03-15T14:00:34.295Z,7.30
2023-03-15T14:05:48.699Z,7.10
2023-03-15T14:11:21.278Z,6.90
2023-03-15T14:17:01.127Z,6.80
2023-03-15T14:22:18.579Z,6.60
2023-03-15T14:27:27.164Z,6.50
2023-03-15T14:32:33.220Z,6.50
2023-03-15T14:37:39.845Z,6.30
2023-03-15T14:42:43.959Z,6.30
2023-03-15T14:47:57.198Z,6.20
2023-03-15T14:53:01.063Z,6.10
2023-03-15T14:58:18.411Z,6.20
2023-03-15T15:03:36.127Z,6.30
2023-03-15T15:08:42.041Z,6.00
2023-03-15T15:13:45.437Z,5.90
2023-03-15T15:18:48.931Z,6.00
2023-03-15T15:23:58.329Z,5.80
2023-03-15T15:29:02.098Z,5.70
2023-03-15T15:34:05.517Z,5.50
2023-03-15T15:39:15.790Z,5.30
2023-03-15T15:44:21.528Z,5.20
2023-03-15T15:49:24.880Z,5.20
2023-03-15T15:54:30.889Z,5.10
2023-03-15T15:59:34.409Z,5.00
2023-03-15T16:04:37.355Z,5.00
2023-03-15T16:09:40.790Z,4.90
2023-03-15T16:14:44.083Z,4.80
2023-03-15T16:19:46.855Z,4.80
2023-03-15T16:24:53.485Z,4.70
2023-03-15T16:29:56.901Z,4.60
2023-03-15T16:35:01.310Z,4.60
2023-03-15T16:40:10.185Z,4.50
2023-03-15T16:45:14.287Z,4.50
2023-03-15T16:50:19.182Z,4.40
2023-03-15T16:55:27.531Z,4.30
2023-03-15T17:00:31.937Z,4.20
2023-03-15T17:05:34.815Z,4.10
2023-03-15T17:10:37.464Z,4.00
2023-03-15T17:15:40.547Z,3.80
2023-03-15T17:20:43.429Z,3.60
2023-03-15T17:25:46.654Z,3.50
2023-03-15T17:30:51.566Z,3.40
2023-03-15T17:35:58.983Z,3.30
2023-03-15T17:41:03.090Z,3.10
2023-03-15T17:46:06.077Z,3.10
2023-03-15T17:51:12.791Z,2.90
2023-03-15T17:56:15.942Z,2.70
2023-03-15T18:01:21.397Z,2.50
2023-03-15T18:06:24.590Z,2.50
2023-03-15T18:11:34.081Z,2.30
2023-03-15T18:16:37.297Z,2.20
2023-03-15T18:21:40.359Z,2.10
2023-03-15T18:26:43.491Z,2.00
2023-03-15T18:31:46.277Z,1.90
2023-03-15T18:36:49.414Z,1.80
2023-03-15T18:41:52.293Z,1.80
2023-03-15T18:46:55.425Z,1.80
2023-03-15T18:51:58.344Z,1.80
2023-03-15T18:57:01.911Z,1.70
2023-03-15T19:02:05.201Z,1.70
2023-03-15T19:07:08.024Z,1.80
2023-03-15T19:12:11.656Z,1.70
2023-03-15T19:17:14.526Z,1.70
2023-03-15T19:22:17.572Z,1.70
2023-03-15T19:27:20.448Z,1.70
2023-03-15T19:32:24.712Z,1.70
2023-03-15T19:37:27.740Z,1.70
2023-03-15T19:42:31.169Z,1.70
2023-03-15T19:47:34.378Z,1.60
2023-03-15T19:52:40.200Z,1.50
2023-03-15T19:57:43.253Z,1.50
2023-03-15T20:02:46.320Z,1.50
2023-03-15T20:07:51.592Z,1.50
2023-03-15T20:12:59.325Z,1.40
2023-03-15T20:18:02.781Z,1.40
2023-03-15T20:23:05.447Z,1.30
2023-03-15T20:28:08.386Z,1.20
2023-03-15T20:33:11.249Z,1.20
2023-03-15T20:38:14.098Z,1.10
2023-03-15T20:43:16.699Z,1.10
2023-03-15T20:48:22.430Z,1.00
2023-03-15T20:53:25.811Z,1.00
2023-03-15T20:58:29.354Z,0.90
2023-03-15T21:03:34.484Z,0.90
2023-03-15T21:08:38.142Z,0.90
2023-03-15T21:13:41.175Z,1.00
2023-03-15T21:18:45.330Z,1.10
2023-03-15T21:23:48.244Z,0.90
2023-03-15T21:28:51.587Z,0.90
2023-03-15T21:33:54.652Z,0.90
2023-03-15T21:38:57.527Z,0.90
2023-03-15T21:44:00.173Z,0.80
2023-03-15T21:49:02.895Z,1.00
2023-03-15T21:54:05.731Z,0.90
2023-03-15T21:59:08.511Z,0.90
2023-03-15T22:04:11.583Z,0.80
2023-03-15T22:09:14.249Z,0.80
2023-03-15T22:14:17.131Z,0.80
2023-03-15T22:19:19.927Z,0.70
2023-03-15T22:24:22.600Z,0.70
2023-03-15T22:29:25.444Z,0.80
2023-03-15T22:34:28.391Z,0.70
2023-03-15T22:39:35.505Z,0.60
2023-03-15T22:44:38.103Z,0.70
2023-03-15T22:49:40.913Z,0.50
2023-03-15T22:54:43.939Z,0.40
2023-03-15T22:59:46.686Z,0.40
2023-03-15T23:04:49.318Z,0.30
2023-03-15T23:09:51.897Z,0.20
2023-03-15T23:14:54.732Z,0.20
2023-03-15T23:19:57.336Z,0.30
2023-03-15T23:24:59.860Z,0.30
2023-03-15T23:30:02.759Z,0.30
2023-03-15T23:35:07.588Z,0.30
2023-03-15T23:40:15.427Z,0.30
2023-03-15T23:45:18.268Z,0.20
2023-03-15T23:50:21.537Z,0.20
2023-03-15T23:55:24.920Z,0.20
